sensor_id;sensor_type;location;lat;lon;timestamp;noise_LAeq;noise_LA_min;noise_LA_max;noise_LA01;noise_LA95
58251;Laerm;51449;51.676;5.812;2023-01-30T00:15:24;46.74;35.57;65.83;;
58251;Laerm;51449;51.676;5.812;2023-01-30T00:18:21;52.26;35.69;69.75;;
58251;Laerm;51449;51.676;5.812;2023-01-30T00:20:43;46.94;37.10;67.53;;
58251;Laerm;51449;51.676;5.812;2023-01-30T00:23:05;57.61;38.44;72.53;;
58251;Laerm;51449;51.676;5.812;2023-01-30T00:25:27;49.30;34.17;64.88;;
58251;Laerm;51449;51.676;5.812;2023-01-30T00:27:50;56.49;33.05;74.06;;
58251;Laerm;51449;51.676;5.812;2023-01-30T00:33:18;40.79;33.07;57.97;;
58251;Laerm;51449;51.676;5.812;2023-01-30T00:35:50;53.58;32.24;72.03;;
58251;Laerm;51449;51.676;5.812;2023-01-30T00:38:19;43.45;34.32;61.05;;
58251;Laerm;51449;51.676;5.812;2023-01-30T00:40:49;48.48;34.82;64.33;;
58251;Laerm;51449;51.676;5.812;2023-01-30T00:43:19;44.36;34.75;65.64;;
58251;Laerm;51449;51.676;5.812;2023-01-30T00:46:50;50.05;34.27;65.08;;
58251;Laerm;51449;51.676;5.812;2023-01-30T00:50:11;53.07;36.72;69.82;;
58251;Laerm;51449;51.676;5.812;2023-01-30T00:53:14;44.36;34.47;58.96;;
58251;Laerm;51449;51.676;5.812;2023-01-30T00:56:49;53.53;34.88;70.26;;
58251;Laerm;51449;51.676;5.812;2023-01-30T00:59:38;46.73;36.61;63.83;;
58251;Laerm;51449;51.676;5.812;2023-01-30T01:07:28;48.22;36.39;66.86;;
58251;Laerm;51449;51.676;5.812;2023-01-30T01:10:23;49.90;36.61;66.84;;
58251;Laerm;51449;51.676;5.812;2023-01-30T01:13:45;45.92;36.87;60.36;;
58251;Laerm;51449;51.676;5.812;2023-01-30T01:17:31;48.87;37.08;65.50;;
58251;Laerm;51449;51.676;5.812;2023-01-30T01:20:39;49.78;38.95;69.46;;
58251;Laerm;51449;51.676;5.812;2023-01-30T01:24:08;57.59;36.91;75.38;;
58251;Laerm;51449;51.676;5.812;2023-01-30T01:27:41;54.18;37.38;74.22;;
58251;Laerm;51449;51.676;5.812;2023-01-30T01:31:30;47.70;37.81;67.43;;
58251;Laerm;51449;51.676;5.812;2023-01-30T01:35:40;52.59;36.88;71.73;;
58251;Laerm;51449;51.676;5.812;2023-01-30T01:39:48;48.91;36.54;65.04;;
58251;Laerm;51449;51.676;5.812;2023-01-30T01:52:39;44.93;37.20;66.39;;
58251;Laerm;51449;51.676;5.812;2023-01-30T01:56:54;49.89;37.62;69.84;;
58251;Laerm;51449;51.676;5.812;2023-01-30T02:00:31;56.37;37.74;70.11;;
58251;Laerm;51449;51.676;5.812;2023-01-30T02:04:19;56.34;40.69;73.23;;
58251;Laerm;51449;51.676;5.812;2023-01-30T02:08:15;57.81;38.72;74.87;;
58251;Laerm;51449;51.676;5.812;2023-01-30T02:14:18;59.09;40.80;72.73;;
58251;Laerm;51449;51.676;5.812;2023-01-30T02:16:50;55.28;39.18;68.35;;
58251;Laerm;51449;51.676;5.812;2023-01-30T02:20:07;57.90;41.39;71.82;;
58251;Laerm;51449;51.676;5.812;2023-01-30T02:33:00;45.30;37.57;61.36;;
58251;Laerm;51449;51.676;5.812;2023-01-30T03:52:09;65.88;41.32;79.46;;
58251;Laerm;51449;51.676;5.812;2023-01-30T03:54:37;58.25;42.93;73.42;;
58251;Laerm;51449;51.676;5.812;2023-01-30T03:57:38;69.11;38.94;79.70;;
58251;Laerm;51449;51.676;5.812;2023-01-30T04:01:20;66.73;38.44;79.99;;
58251;Laerm;51449;51.676;5.812;2023-01-30T04:04:16;62.93;36.09;76.76;;
58251;Laerm;51449;51.676;5.812;2023-01-30T04:06:43;63.41;38.56;76.18;;
58251;Laerm;51449;51.676;5.812;2023-01-30T04:09:20;69.30;40.14;83.07;;
58251;Laerm;51449;51.676;5.812;2023-01-30T04:11:52;68.98;43.00;82.50;;
58251;Laerm;51449;51.676;5.812;2023-01-30T04:15:03;67.73;44.23;81.03;;
58251;Laerm;51449;51.676;5.812;2023-01-30T04:20:44;72.34;45.60;81.02;;
58251;Laerm;51449;51.676;5.812;2023-01-30T04:26:27;68.77;43.19;80.80;;
58251;Laerm;51449;51.676;5.812;2023-01-30T04:38:32;68.93;40.06;80.24;;
58251;Laerm;51449;51.676;5.812;2023-01-30T04:42:09;70.95;43.06;82.11;;
58251;Laerm;51449;51.676;5.812;2023-01-30T04:49:32;70.57;43.32;81.10;;
58251;Laerm;51449;51.676;5.812;2023-01-30T04:59:05;69.34;45.30;80.96;;
58251;Laerm;51449;51.676;5.812;2023-01-30T05:01:37;60.55;40.97;72.94;;
58251;Laerm;51449;51.676;5.812;2023-01-30T05:04:08;65.61;42.45;75.24;;
58251;Laerm;51449;51.676;5.812;2023-01-30T05:06:39;66.91;44.58;78.42;;
58251;Laerm;51449;51.676;5.812;2023-01-30T05:09:10;67.15;44.87;78.70;;
58251;Laerm;51449;51.676;5.812;2023-01-30T05:12:01;69.72;50.64;80.35;;
58251;Laerm;51449;51.676;5.812;2023-01-30T05:15:08;62.63;42.52;73.92;;
58251;Laerm;51449;51.676;5.812;2023-01-30T05:17:37;70.18;48.72;79.06;;
58251;Laerm;51449;51.676;5.812;2023-01-30T05:20:10;65.95;49.43;78.02;;
58251;Laerm;51449;51.676;5.812;2023-01-30T05:22:46;68.90;44.37;78.85;;
58251;Laerm;51449;51.676;5.812;2023-01-30T05:25:13;69.83;48.41;78.26;;
58251;Laerm;51449;51.676;5.812;2023-01-30T05:28:12;68.21;46.10;79.45;;
58251;Laerm;51449;51.676;5.812;2023-01-30T05:30:39;68.42;47.95;79.46;;
58251;Laerm;51449;51.676;5.812;2023-01-30T05:33:13;67.48;50.27;78.37;;
58251;Laerm;51449;51.676;5.812;2023-01-30T05:35:48;68.91;52.74;77.72;;
58251;Laerm;51449;51.676;5.812;2023-01-30T05:38:32;67.36;47.25;75.20;;
58251;Laerm;51449;51.676;5.812;2023-01-30T05:41:04;68.88;50.99;80.33;;
58251;Laerm;51449;51.676;5.812;2023-01-30T05:43:33;67.05;45.82;76.50;;
58251;Laerm;51449;51.676;5.812;2023-01-30T05:46:08;69.45;48.85;78.61;;
58251;Laerm;51449;51.676;5.812;2023-01-30T05:48:36;70.35;45.62;82.29;;
58251;Laerm;51449;51.676;5.812;2023-01-30T05:51:22;70.25;45.62;79.83;;
58251;Laerm;51449;51.676;5.812;2023-01-30T05:53:55;67.97;48.26;77.69;;
58251;Laerm;51449;51.676;5.812;2023-01-30T05:56:27;67.67;47.26;77.04;;
58251;Laerm;51449;51.676;5.812;2023-01-30T05:58:56;67.87;48.25;77.03;;
58251;Laerm;51449;51.676;5.812;2023-01-30T06:01:28;68.14;51.84;76.38;;
58251;Laerm;51449;51.676;5.812;2023-01-30T06:04:01;68.52;52.47;77.25;;
58251;Laerm;51449;51.676;5.812;2023-01-30T06:06:26;74.94;51.21;88.50;;
58251;Laerm;51449;51.676;5.812;2023-01-30T06:08:55;68.96;52.75;76.58;;
58251;Laerm;51449;51.676;5.812;2023-01-30T06:11:25;67.14;45.54;76.36;;
58251;Laerm;51449;51.676;5.812;2023-01-30T06:13:54;68.81;43.87;78.17;;
58251;Laerm;51449;51.676;5.812;2023-01-30T06:16:22;69.06;46.10;78.05;;
58251;Laerm;51449;51.676;5.812;2023-01-30T06:18:48;70.51;51.35;78.16;;
58251;Laerm;51449;51.676;5.812;2023-01-30T06:21:16;69.31;50.08;77.75;;
58251;Laerm;51449;51.676;5.812;2023-01-30T06:23:43;67.64;43.82;80.65;;
58251;Laerm;51449;51.676;5.812;2023-01-30T06:26:09;68.26;48.54;76.65;;
58251;Laerm;51449;51.676;5.812;2023-01-30T06:28:34;70.36;52.59;80.57;;
58251;Laerm;51449;51.676;5.812;2023-01-30T06:31:05;67.34;47.94;77.16;;
58251;Laerm;51449;51.676;5.812;2023-01-30T06:33:57;68.58;50.33;76.09;;
58251;Laerm;51449;51.676;5.812;2023-01-30T06:36:34;67.27;44.34;76.63;;
58251;Laerm;51449;51.676;5.812;2023-01-30T06:39:10;69.52;44.74;75.95;;
58251;Laerm;51449;51.676;5.812;2023-01-30T06:41:47;67.75;51.61;77.81;;
58251;Laerm;51449;51.676;5.812;2023-01-30T06:49:39;68.68;44.91;76.53;;
58251;Laerm;51449;51.676;5.812;2023-01-30T06:52:10;69.66;52.38;78.59;;
58251;Laerm;51449;51.676;5.812;2023-01-30T06:54:42;69.24;50.45;78.17;;
58251;Laerm;51449;51.676;5.812;2023-01-30T06:57:10;67.76;52.83;75.31;;
58251;Laerm;51449;51.676;5.812;2023-01-30T06:59:53;70.68;48.93;82.11;;
58251;Laerm;51449;51.676;5.812;2023-01-30T07:03:20;67.76;44.89;78.02;;
58251;Laerm;51449;51.676;5.812;2023-01-30T07:06:45;70.09;59.99;79.29;;
58251;Laerm;51449;51.676;5.812;2023-01-30T07:13:31;66.27;47.87;78.74;;
58251;Laerm;51449;51.676;5.812;2023-01-30T07:19:59;67.31;47.88;81.46;;
58251;Laerm;51449;51.676;5.812;2023-01-30T07:23:03;68.72;51.40;79.96;;
58251;Laerm;51449;51.676;5.812;2023-01-30T07:26:07;69.09;50.64;78.67;;
58251;Laerm;51449;51.676;5.812;2023-01-30T07:30:01;68.65;50.49;77.52;;
58251;Laerm;51449;51.676;5.812;2023-01-30T07:33:06;65.07;45.35;75.82;;
58251;Laerm;51449;51.676;5.812;2023-01-30T07:36:54;69.55;50.61;87.98;;
58251;Laerm;51449;51.676;5.812;2023-01-30T07:40:34;68.52;49.17;77.05;;
58251;Laerm;51449;51.676;5.812;2023-01-30T07:44:17;68.88;48.71;78.42;;
58251;Laerm;51449;51.676;5.812;2023-01-30T07:47:45;66.27;45.79;78.27;;
58251;Laerm;51449;51.676;5.812;2023-01-30T07:51:18;66.70;45.68;78.04;;
58251;Laerm;51449;51.676;5.812;2023-01-30T07:55:06;69.06;49.84;78.41;;
58251;Laerm;51449;51.676;5.812;2023-01-30T07:57:53;66.10;46.45;79.57;;
58251;Laerm;51449;51.676;5.812;2023-01-30T08:01:37;66.56;47.41;76.16;;
58251;Laerm;51449;51.676;5.812;2023-01-30T08:09:46;62.49;40.58;75.41;;
58251;Laerm;51449;51.676;5.812;2023-01-30T08:13:14;64.89;40.35;75.34;;
58251;Laerm;51449;51.676;5.812;2023-01-30T08:17:14;65.30;46.99;76.79;;
58251;Laerm;51449;51.676;5.812;2023-01-30T08:21:47;67.89;46.12;77.77;;
58251;Laerm;51449;51.676;5.812;2023-01-30T08:25:02;67.75;51.92;74.83;;
58251;Laerm;51449;51.676;5.812;2023-01-30T08:28:51;65.57;42.34;76.99;;
58251;Laerm;51449;51.676;5.812;2023-01-30T08:35:42;66.27;42.38;79.07;;
58251;Laerm;51449;51.676;5.812;2023-01-30T08:39:09;67.67;46.14;82.10;;
58251;Laerm;51449;51.676;5.812;2023-01-30T08:42:07;69.46;47.14;81.24;;
58251;Laerm;51449;51.676;5.812;2023-01-30T08:45:42;66.87;45.15;76.81;;
58251;Laerm;51449;51.676;5.812;2023-01-30T08:54:25;71.86;46.32;91.80;;
58251;Laerm;51449;51.676;5.812;2023-01-30T08:57:40;66.07;48.07;76.60;;
58251;Laerm;51449;51.676;5.812;2023-01-30T09:01:10;63.06;40.90;76.52;;
58251;Laerm;51449;51.676;5.812;2023-01-30T09:04:27;67.64;50.62;78.69;;
58251;Laerm;51449;51.676;5.812;2023-01-30T09:07:42;64.73;45.15;75.92;;
58251;Laerm;51449;51.676;5.812;2023-01-30T09:11:04;68.06;46.98;77.70;;
58251;Laerm;51449;51.676;5.812;2023-01-30T09:14:24;63.65;45.16;76.01;;
58251;Laerm;51449;51.676;5.812;2023-01-30T09:17:18;65.06;46.06;78.60;;
58251;Laerm;51449;51.676;5.812;2023-01-30T09:19:56;64.62;46.90;75.70;;
58251;Laerm;51449;51.676;5.812;2023-01-30T09:23:34;66.17;46.64;74.13;;
58251;Laerm;51449;51.676;5.812;2023-01-30T09:27:09;66.62;50.28;79.85;;
58251;Laerm;51449;51.676;5.812;2023-01-30T09:30:06;64.51;46.35;73.46;;
58251;Laerm;51449;51.676;5.812;2023-01-30T09:32:57;66.84;47.34;78.32;;
58251;Laerm;51449;51.676;5.812;2023-01-30T09:35:27;68.26;48.27;78.92;;
58251;Laerm;51449;51.676;5.812;2023-01-30T09:38:43;67.85;51.06;77.69;;
58251;Laerm;51449;51.676;5.812;2023-01-30T10:00:11;63.91;44.79;80.40;;
58251;Laerm;51449;51.676;5.812;2023-01-30T10:15:28;65.96;47.87;76.33;;
58251;Laerm;51449;51.676;5.812;2023-01-30T10:26:50;65.15;51.56;74.40;;
58251;Laerm;51449;51.676;5.812;2023-01-30T10:30:07;66.79;49.90;76.90;;
58251;Laerm;51449;51.676;5.812;2023-01-30T10:34:15;66.16;50.82;76.61;;
58251;Laerm;51449;51.676;5.812;2023-01-30T10:54:57;68.70;54.68;77.44;;
58251;Laerm;51449;51.676;5.812;2023-01-30T11:05:59;72.15;49.18;92.55;;
58251;Laerm;51449;51.676;5.812;2023-01-30T11:09:13;66.06;48.96;76.79;;
58251;Laerm;51449;51.676;5.812;2023-01-30T11:11:59;67.16;53.73;79.87;;
58251;Laerm;51449;51.676;5.812;2023-01-30T11:16:14;67.48;46.41;81.26;;
58251;Laerm;51449;51.676;5.812;2023-01-30T11:19:39;65.91;49.35;77.91;;
58251;Laerm;51449;51.676;5.812;2023-01-30T11:22:30;67.97;49.19;79.07;;
58251;Laerm;51449;51.676;5.812;2023-01-30T11:25:22;64.47;52.42;75.10;;
58251;Laerm;51449;51.676;5.812;2023-01-30T11:28:21;67.46;50.97;79.96;;
58251;Laerm;51449;51.676;5.812;2023-01-30T11:31:04;67.39;49.89;83.27;;
58251;Laerm;51449;51.676;5.812;2023-01-30T11:34:15;66.79;52.56;79.30;;
58251;Laerm;51449;51.676;5.812;2023-01-30T11:37:12;66.71;49.99;80.17;;
58251;Laerm;51449;51.676;5.812;2023-01-30T11:39:51;66.47;49.42;84.73;;
58251;Laerm;51449;51.676;5.812;2023-01-30T11:42:21;68.75;52.39;78.74;;
58251;Laerm;51449;51.676;5.812;2023-01-30T11:44:46;68.95;57.06;79.50;;
58251;Laerm;51449;51.676;5.812;2023-01-30T11:47:27;67.14;51.08;78.25;;
58251;Laerm;51449;51.676;5.812;2023-01-30T11:49:55;66.84;51.34;74.43;;
58251;Laerm;51449;51.676;5.812;2023-01-30T11:52:48;68.62;53.55;79.32;;
58251;Laerm;51449;51.676;5.812;2023-01-30T11:55:17;68.27;52.65;78.37;;
58251;Laerm;51449;51.676;5.812;2023-01-30T11:57:51;67.91;52.26;82.16;;
58251;Laerm;51449;51.676;5.812;2023-01-30T12:00:40;63.80;50.13;74.02;;
58251;Laerm;51449;51.676;5.812;2023-01-30T12:03:17;66.05;47.48;83.62;;
58251;Laerm;51449;51.676;5.812;2023-01-30T12:05:46;68.53;54.44;79.13;;
58251;Laerm;51449;51.676;5.812;2023-01-30T12:08:50;66.09;50.11;78.28;;
58251;Laerm;51449;51.676;5.812;2023-01-30T12:11:47;63.33;48.50;74.35;;
58251;Laerm;51449;51.676;5.812;2023-01-30T12:14:39;65.83;50.41;76.95;;
58251;Laerm;51449;51.676;5.812;2023-01-30T12:22:46;68.05;51.85;80.14;;
58251;Laerm;51449;51.676;5.812;2023-01-30T12:25:32;67.00;46.32;80.43;;
58251;Laerm;51449;51.676;5.812;2023-01-30T12:28:46;68.30;54.44;78.33;;
58251;Laerm;51449;51.676;5.812;2023-01-30T12:31:31;66.25;50.02;76.72;;
58251;Laerm;51449;51.676;5.812;2023-01-30T12:33:58;69.57;57.16;81.63;;
58251;Laerm;51449;51.676;5.812;2023-01-30T12:46:28;66.02;50.66;76.22;;
58251;Laerm;51449;51.676;5.812;2023-01-30T12:49:47;68.62;53.74;82.66;;
58251;Laerm;51449;51.676;5.812;2023-01-30T12:55:53;66.44;45.87;78.25;;
58251;Laerm;51449;51.676;5.812;2023-01-30T13:01:30;66.63;51.97;75.82;;
58251;Laerm;51449;51.676;5.812;2023-01-30T13:08:01;68.97;47.47;80.12;;
58251;Laerm;51449;51.676;5.812;2023-01-30T13:10:44;66.00;53.08;76.18;;
58251;Laerm;51449;51.676;5.812;2023-01-30T13:13:29;67.19;52.81;79.71;;
58251;Laerm;51449;51.676;5.812;2023-01-30T13:18:51;66.33;45.86;78.74;;
58251;Laerm;51449;51.676;5.812;2023-01-30T13:21:36;69.14;50.33;85.34;;
58251;Laerm;51449;51.676;5.812;2023-01-30T13:26:52;67.42;50.07;78.90;;
58251;Laerm;51449;51.676;5.812;2023-01-30T13:29:39;66.84;52.20;77.12;;
58251;Laerm;51449;51.676;5.812;2023-01-30T13:34:58;67.25;49.19;81.82;;
58251;Laerm;51449;51.676;5.812;2023-01-30T13:37:23;66.81;51.90;77.87;;
58251;Laerm;51449;51.676;5.812;2023-01-30T13:40:10;67.29;52.53;78.67;;
58251;Laerm;51449;51.676;5.812;2023-01-30T13:46:12;66.38;47.24;87.88;;
58251;Laerm;51449;51.676;5.812;2023-01-30T13:54:15;66.97;52.89;78.53;;
58251;Laerm;51449;51.676;5.812;2023-01-30T13:58:00;67.31;46.35;80.98;;
58251;Laerm;51449;51.676;5.812;2023-01-30T14:00:35;67.79;49.79;78.12;;
58251;Laerm;51449;51.676;5.812;2023-01-30T14:03:41;65.19;45.24;80.30;;
58251;Laerm;51449;51.676;5.812;2023-01-30T14:06:52;65.28;43.18;75.93;;
58251;Laerm;51449;51.676;5.812;2023-01-30T14:17:17;66.48;50.22;74.29;;
58251;Laerm;51449;51.676;5.812;2023-01-30T14:19:52;67.25;56.01;79.38;;
58251;Laerm;51449;51.676;5.812;2023-01-30T14:22:54;68.36;50.96;79.20;;
58251;Laerm;51449;51.676;5.812;2023-01-30T14:25:34;66.63;48.57;79.56;;
58251;Laerm;51449;51.676;5.812;2023-01-30T14:28:47;66.04;44.83;74.77;;
58251;Laerm;51449;51.676;5.812;2023-01-30T14:31:55;64.84;45.96;77.44;;
58251;Laerm;51449;51.676;5.812;2023-01-30T14:44:53;68.44;49.33;91.64;;
58251;Laerm;51449;51.676;5.812;2023-01-30T14:57:52;63.93;45.21;75.11;;
58251;Laerm;51449;51.676;5.812;2023-01-30T15:05:55;66.26;44.65;81.54;;
58251;Laerm;51449;51.676;5.812;2023-01-30T15:09:21;65.96;44.42;77.55;;
58251;Laerm;51449;51.676;5.812;2023-01-30T15:20:06;68.61;51.37;80.56;;
58251;Laerm;51449;51.676;5.812;2023-01-30T15:50:38;67.39;49.70;83.46;;
58251;Laerm;51449;51.676;5.812;2023-01-30T15:54:00;66.65;53.08;75.08;;
58251;Laerm;51449;51.676;5.812;2023-01-30T15:56:31;63.63;42.82;74.23;;
58251;Laerm;51449;51.676;5.812;2023-01-30T15:59:23;66.26;46.85;73.64;;
58251;Laerm;51449;51.676;5.812;2023-01-30T16:02:40;63.77;41.21;74.13;;
58251;Laerm;51449;51.676;5.812;2023-01-30T16:05:25;67.18;52.14;74.83;;
58251;Laerm;51449;51.676;5.812;2023-01-30T16:08:29;65.58;43.71;75.15;;
58251;Laerm;51449;51.676;5.812;2023-01-30T16:11:10;65.17;43.48;77.64;;
58251;Laerm;51449;51.676;5.812;2023-01-30T16:14:26;67.74;50.17;75.74;;
58251;Laerm;51449;51.676;5.812;2023-01-30T16:17:11;68.92;55.51;79.60;;
58251;Laerm;51449;51.676;5.812;2023-01-30T16:19:45;67.86;50.41;77.06;;
58251;Laerm;51449;51.676;5.812;2023-01-30T16:22:43;66.55;44.08;83.95;;
58251;Laerm;51449;51.676;5.812;2023-01-30T16:26:15;65.70;50.73;77.15;;
58251;Laerm;51449;51.676;5.812;2023-01-30T16:28:43;66.24;44.70;75.82;;
58251;Laerm;51449;51.676;5.812;2023-01-30T16:31:33;65.55;46.66;76.85;;
58251;Laerm;51449;51.676;5.812;2023-01-30T16:34:02;65.06;51.28;72.58;;
58251;Laerm;51449;51.676;5.812;2023-01-30T16:36:39;65.91;52.63;77.36;;
58251;Laerm;51449;51.676;5.812;2023-01-30T16:39:37;66.95;49.12;78.27;;
58251;Laerm;51449;51.676;5.812;2023-01-30T16:42:27;65.49;44.69;83.72;;
58251;Laerm;51449;51.676;5.812;2023-01-30T16:51:21;64.62;48.80;71.41;;
58251;Laerm;51449;51.676;5.812;2023-01-30T16:54:03;61.36;41.06;72.44;;
58251;Laerm;51449;51.676;5.812;2023-01-30T16:56:33;66.55;44.27;82.44;;
58251;Laerm;51449;51.676;5.812;2023-01-30T16:59:19;63.80;43.37;74.29;;
58251;Laerm;51449;51.676;5.812;2023-01-30T17:01:47;63.68;45.01;76.04;;
58251;Laerm;51449;51.676;5.812;2023-01-30T17:04:22;64.08;42.53;73.81;;
58251;Laerm;51449;51.676;5.812;2023-01-30T17:07:05;63.93;41.36;73.78;;
58251;Laerm;51449;51.676;5.812;2023-01-30T17:09:48;61.90;38.80;73.32;;
58251;Laerm;51449;51.676;5.812;2023-01-30T17:12:36;62.00;38.75;77.70;;
58251;Laerm;51449;51.676;5.812;2023-01-30T17:18:29;64.67;46.35;73.71;;
58251;Laerm;51449;51.676;5.812;2023-01-30T17:20:55;62.40;44.04;73.84;;
58251;Laerm;51449;51.676;5.812;2023-01-30T17:23:20;61.02;44.89;70.54;;
58251;Laerm;51449;51.676;5.812;2023-01-30T17:25:48;60.26;37.56;71.53;;
58251;Laerm;51449;51.676;5.812;2023-01-30T17:28:17;63.40;40.57;72.06;;
58251;Laerm;51449;51.676;5.812;2023-01-30T17:30:42;61.76;38.83;72.37;;
58251;Laerm;51449;51.676;5.812;2023-01-30T17:33:05;62.46;44.32;71.81;;
58251;Laerm;51449;51.676;5.812;2023-01-30T17:35:27;64.39;45.66;74.08;;
58251;Laerm;51449;51.676;5.812;2023-01-30T17:37:49;61.86;40.92;72.02;;
58251;Laerm;51449;51.676;5.812;2023-01-30T17:40:32;62.61;44.48;70.98;;
58251;Laerm;51449;51.676;5.812;2023-01-30T17:42:55;63.33;42.89;72.75;;
58251;Laerm;51449;51.676;5.812;2023-01-30T17:45:16;60.34;40.61;69.70;;
58251;Laerm;51449;51.676;5.812;2023-01-30T17:47:38;59.58;37.55;69.56;;
58251;Laerm;51449;51.676;5.812;2023-01-30T17:50:00;60.48;41.37;71.41;;
58251;Laerm;51449;51.676;5.812;2023-01-30T17:52:23;62.06;41.05;71.04;;
58251;Laerm;51449;51.676;5.812;2023-01-30T17:54:44;62.92;40.90;71.64;;
58251;Laerm;51449;51.676;5.812;2023-01-30T17:57:09;63.04;41.35;75.68;;
58251;Laerm;51449;51.676;5.812;2023-01-30T17:59:33;61.47;43.12;74.38;;
58251;Laerm;51449;51.676;5.812;2023-01-30T18:01:55;63.82;40.12;73.47;;
58251;Laerm;51449;51.676;5.812;2023-01-30T18:04:19;62.83;37.99;72.50;;
58251;Laerm;51449;51.676;5.812;2023-01-30T18:06:43;57.87;39.81;69.30;;
58251;Laerm;51449;51.676;5.812;2023-01-30T18:09:06;61.70;39.52;71.35;;
58251;Laerm;51449;51.676;5.812;2023-01-30T18:11:31;62.43;42.35;74.83;;
58251;Laerm;51449;51.676;5.812;2023-01-30T18:13:53;58.99;39.47;68.74;;
58251;Laerm;51449;51.676;5.812;2023-01-30T18:16:22;61.71;41.86;72.68;;
58251;Laerm;51449;51.676;5.812;2023-01-30T18:18:45;59.46;37.83;72.01;;
58251;Laerm;51449;51.676;5.812;2023-01-30T18:21:06;61.31;40.43;73.56;;
58251;Laerm;51449;51.676;5.812;2023-01-30T18:23:28;61.81;40.33;72.54;;
58251;Laerm;51449;51.676;5.812;2023-01-30T18:25:50;60.24;40.59;73.89;;
58251;Laerm;51449;51.676;5.812;2023-01-30T18:28:12;59.55;38.67;71.29;;
58251;Laerm;51449;51.676;5.812;2023-01-30T18:30:34;55.94;39.39;71.40;;
58251;Laerm;51449;51.676;5.812;2023-01-30T18:32:56;60.84;37.48;72.18;;
58251;Laerm;51449;51.676;5.812;2023-01-30T18:35:18;59.88;36.31;70.99;;
58251;Laerm;51449;51.676;5.812;2023-01-30T18:37:40;57.14;37.01;70.25;;
58251;Laerm;51449;51.676;5.812;2023-01-30T18:40:02;58.53;41.29;70.13;;
58251;Laerm;51449;51.676;5.812;2023-01-30T18:42:24;61.24;37.44;73.18;;
58251;Laerm;51449;51.676;5.812;2023-01-30T18:44:47;60.19;39.62;71.94;;
58251;Laerm;51449;51.676;5.812;2023-01-30T18:47:08;61.19;41.60;70.95;;
58251;Laerm;51449;51.676;5.812;2023-01-30T18:49:30;58.26;37.28;70.48;;
58251;Laerm;51449;51.676;5.812;2023-01-30T18:51:52;60.52;45.59;73.34;;
58251;Laerm;51449;51.676;5.812;2023-01-30T18:54:14;63.48;42.20;76.12;;
58251;Laerm;51449;51.676;5.812;2023-01-30T18:56:36;60.92;37.43;73.44;;
58251;Laerm;51449;51.676;5.812;2023-01-30T18:59:02;59.35;37.97;69.55;;
58251;Laerm;51449;51.676;5.812;2023-01-30T19:01:27;60.67;40.35;71.68;;
58251;Laerm;51449;51.676;5.812;2023-01-30T19:03:54;56.69;38.86;68.85;;
58251;Laerm;51449;51.676;5.812;2023-01-30T19:06:15;62.37;37.94;73.30;;
58251;Laerm;51449;51.676;5.812;2023-01-30T19:08:40;59.00;37.42;71.89;;
58251;Laerm;51449;51.676;5.812;2023-01-30T19:11:12;59.59;36.01;73.69;;
58251;Laerm;51449;51.676;5.812;2023-01-30T19:13:55;53.13;36.86;66.48;;
58251;Laerm;51449;51.676;5.812;2023-01-30T19:16:17;60.82;37.70;86.12;;
58251;Laerm;51449;51.676;5.812;2023-01-30T19:18:39;56.80;36.54;69.71;;
58251;Laerm;51449;51.676;5.812;2023-01-30T19:21:01;58.89;37.93;70.72;;
58251;Laerm;51449;51.676;5.812;2023-01-30T19:23:26;58.69;35.22;73.71;;
58251;Laerm;51449;51.676;5.812;2023-01-30T19:25:54;57.10;36.61;71.73;;
58251;Laerm;51449;51.676;5.812;2023-01-30T19:28:15;57.37;36.07;71.46;;
58251;Laerm;51449;51.676;5.812;2023-01-30T19:30:37;60.52;37.38;70.07;;
58251;Laerm;51449;51.676;5.812;2023-01-30T19:32:59;59.05;35.44;69.50;;
58251;Laerm;51449;51.676;5.812;2023-01-30T19:35:21;60.11;36.39;69.88;;
58251;Laerm;51449;51.676;5.812;2023-01-30T19:37:43;56.02;35.41;71.23;;
58251;Laerm;51449;51.676;5.812;2023-01-30T19:40:07;64.30;40.29;87.82;;
58251;Laerm;51449;51.676;5.812;2023-01-30T19:42:30;54.04;36.50;68.36;;
58251;Laerm;51449;51.676;5.812;2023-01-30T19:44:51;60.56;34.98;73.53;;
58251;Laerm;51449;51.676;5.812;2023-01-30T19:47:13;58.41;34.97;70.28;;
58251;Laerm;51449;51.676;5.812;2023-01-30T19:49:35;56.36;36.14;68.70;;
58251;Laerm;51449;51.676;5.812;2023-01-30T19:51:58;56.92;36.65;69.53;;
58251;Laerm;51449;51.676;5.812;2023-01-30T19:54:22;57.85;38.77;69.75;;
58251;Laerm;51449;51.676;5.812;2023-01-30T19:56:44;58.63;36.73;73.82;;
58251;Laerm;51449;51.676;5.812;2023-01-30T19:59:10;57.08;35.82;69.54;;
58251;Laerm;51449;51.676;5.812;2023-01-30T20:01:33;57.16;35.82;70.77;;
58251;Laerm;51449;51.676;5.812;2023-01-30T20:04:00;53.23;34.67;67.08;;
58251;Laerm;51449;51.676;5.812;2023-01-30T20:06:26;58.89;35.79;68.88;;
58251;Laerm;51449;51.676;5.812;2023-01-30T20:08:56;60.52;37.15;71.26;;
58251;Laerm;51449;51.676;5.812;2023-01-30T20:11:20;60.14;37.49;73.93;;
58251;Laerm;51449;51.676;5.812;2023-01-30T20:13:44;61.75;37.79;75.20;;
58251;Laerm;51449;51.676;5.812;2023-01-30T20:16:11;60.51;39.24;71.59;;
58251;Laerm;51449;51.676;5.812;2023-01-30T20:18:35;56.40;33.99;72.14;;
58251;Laerm;51449;51.676;5.812;2023-01-30T20:21:10;58.98;35.18;71.01;;
58251;Laerm;51449;51.676;5.812;2023-01-30T20:23:32;52.61;35.05;67.33;;
58251;Laerm;51449;51.676;5.812;2023-01-30T20:25:55;60.53;33.28;74.39;;
58251;Laerm;51449;51.676;5.812;2023-01-30T20:28:16;58.26;35.32;70.35;;
58251;Laerm;51449;51.676;5.812;2023-01-30T20:30:39;58.13;35.40;69.72;;
58251;Laerm;51449;51.676;5.812;2023-01-30T20:33:01;60.87;34.54;73.55;;
58251;Laerm;51449;51.676;5.812;2023-01-30T20:35:22;57.63;37.47;71.32;;
58251;Laerm;51449;51.676;5.812;2023-01-30T20:37:44;63.11;36.89;78.93;;
58251;Laerm;51449;51.676;5.812;2023-01-30T20:40:07;53.29;33.89;70.12;;
58251;Laerm;51449;51.676;5.812;2023-01-30T20:42:29;59.51;35.55;72.59;;
58251;Laerm;51449;51.676;5.812;2023-01-30T20:44:51;58.91;36.06;71.61;;
58251;Laerm;51449;51.676;5.812;2023-01-30T20:47:13;58.47;37.25;71.22;;
58251;Laerm;51449;51.676;5.812;2023-01-30T20:49:35;51.70;36.41;66.93;;
58251;Laerm;51449;51.676;5.812;2023-01-30T20:51:57;57.90;36.32;70.80;;
58251;Laerm;51449;51.676;5.812;2023-01-30T20:54:21;62.23;36.24;74.63;;
58251;Laerm;51449;51.676;5.812;2023-01-30T20:56:47;56.55;35.41;71.69;;
58251;Laerm;51449;51.676;5.812;2023-01-30T20:59:13;56.52;37.91;68.13;;
58251;Laerm;51449;51.676;5.812;2023-01-30T21:01:36;54.12;35.19;67.80;;
58251;Laerm;51449;51.676;5.812;2023-01-30T21:03:58;58.21;35.80;70.29;;
58251;Laerm;51449;51.676;5.812;2023-01-30T21:06:29;59.66;35.17;72.16;;
58251;Laerm;51449;51.676;5.812;2023-01-30T21:09:08;55.38;35.28;69.46;;
58251;Laerm;51449;51.676;5.812;2023-01-30T21:11:34;60.46;37.85;71.04;;
58251;Laerm;51449;51.676;5.812;2023-01-30T21:13:56;55.91;35.93;67.53;;
58251;Laerm;51449;51.676;5.812;2023-01-30T21:16:26;56.77;34.70;70.07;;
58251;Laerm;51449;51.676;5.812;2023-01-30T21:18:53;59.14;34.64;74.04;;
58251;Laerm;51449;51.676;5.812;2023-01-30T21:21:29;58.59;36.48;70.61;;
58251;Laerm;51449;51.676;5.812;2023-01-30T21:23:56;58.92;36.40;71.14;;
58251;Laerm;51449;51.676;5.812;2023-01-30T21:26:22;55.87;37.34;66.46;;
58251;Laerm;51449;51.676;5.812;2023-01-30T21:28:44;63.41;31.66;80.26;;